createdAt,value
2023-04-16T00:02:19.138Z,90.29
2023-04-16T00:04:46.012Z,89.47
2023-04-16T00:07:12.715Z,89.36
2023-04-16T00:09:41.719Z,88.78
2023-04-16T00:12:08.788Z,88.42
2023-04-16T00:14:35.406Z,88.52
2023-04-16T00:17:01.990Z,88.71
2023-04-16T00:19:28.607Z,88.88
2023-04-16T00:21:55.228Z,89.51
2023-04-16T00:24:24.129Z,88.56
2023-04-16T00:26:50.762Z,88.79
2023-04-16T00:29:19.676Z,89.07
2023-04-16T00:31:46.252Z,89.78
2023-04-16T00:34:12.799Z,89.08
2023-04-16T00:36:41.848Z,89.28
2023-04-16T00:39:08.653Z,89.20
2023-04-16T00:41:35.461Z,89.28
2023-04-16T00:44:02.054Z,89.57
2023-04-16T00:46:31.491Z,89.92
2023-04-16T00:49:03.071Z,90.59
2023-04-16T00:51:32.525Z,91.35
2023-04-16T00:53:59.110Z,91.89
2023-04-16T00:56:25.703Z,92.61
2023-04-16T00:58:52.274Z,93.34
2023-04-16T01:01:18.874Z,93.28
2023-04-16T01:03:47.559Z,93.94
2023-04-16T01:06:17.059Z,94.03
2023-04-16T01:08:43.857Z,93.64
2023-04-16T01:11:12.087Z,92.93
2023-04-16T01:13:41.417Z,92.72
2023-04-16T01:16:11.658Z,93.41
2023-04-16T01:18:41.087Z,92.90
2023-04-16T01:21:10.130Z,93.70
2023-04-16T01:23:36.823Z,93.63
2023-04-16T01:26:03.475Z,93.51
2023-04-16T01:28:30.110Z,93.39
2023-04-16T01:30:56.749Z,93.65
2023-04-16T01:33:23.382Z,93.43
2023-04-16T01:35:49.967Z,93.71
2023-04-16T01:38:16.740Z,94.22
2023-04-16T01:40:45.510Z,94.17
2023-04-16T01:43:12.067Z,94.77
2023-04-16T01:45:38.615Z,94.99
2023-04-16T01:48:07.669Z,95.21
2023-04-16T01:50:37.470Z,94.92
2023-04-16T01:53:05.212Z,94.62
2023-04-16T01:55:36.284Z,94.91
2023-04-16T01:58:02.959Z,95.36
2023-04-16T02:00:29.588Z,95.25
2023-04-16T02:02:56.420Z,95.19
2023-04-16T02:05:25.923Z,95.50
2023-04-16T02:07:55.005Z,95.12
2023-04-16T02:10:22.149Z,94.62
2023-04-16T02:12:48.832Z,93.56
2023-04-16T02:15:17.753Z,93.13
2023-04-16T02:17:48.711Z,93.39
2023-04-16T02:20:15.713Z,93.61
2023-04-16T02:22:43.418Z,92.97
2023-04-16T02:25:10.012Z,92.75
2023-04-16T02:27:36.770Z,92.18
2023-04-16T02:30:04.353Z,93.35
2023-04-16T02:32:31.181Z,93.15
2023-04-16T02:34:57.775Z,93.11
2023-04-16T02:37:25.935Z,93.41
2023-04-16T02:39:53.327Z,92.61
2023-04-16T02:42:19.877Z,92.44
2023-04-16T02:44:46.461Z,92.74
2023-04-16T02:47:12.998Z,91.93
2023-04-16T02:49:39.572Z,92.74
2023-04-16T02:52:06.205Z,93.42
2023-04-16T02:54:32.818Z,93.33
2023-04-16T02:57:02.433Z,94.08
2023-04-16T02:59:29.043Z,94.10
2023-04-16T03:01:55.672Z,93.48
2023-04-16T03:04:24.683Z,93.63
2023-04-16T03:06:56.302Z,93.35
2023-04-16T03:09:22.861Z,93.68
2023-04-16T03:11:49.425Z,93.40
2023-04-16T03:14:15.989Z,93.06
2023-04-16T03:16:44.792Z,93.08
2023-04-16T03:19:13.745Z,93.71
2023-04-16T03:21:45.349Z,93.28
2023-04-16T03:24:11.924Z,92.99
2023-04-16T03:26:38.499Z,92.06
2023-04-16T03:29:05.460Z,91.98
2023-04-16T03:31:36.936Z,91.59
2023-04-16T03:34:05.702Z,91.32
2023-04-16T03:36:34.581Z,91.73
2023-04-16T03:39:03.664Z,91.18
2023-04-16T03:41:30.220Z,91.94
2023-04-16T03:43:56.781Z,91.57
2023-04-16T03:46:25.858Z,91.14
2023-04-16T03:48:54.783Z,91.56
2023-04-16T03:51:21.459Z,91.52
2023-04-16T03:53:48.006Z,91.10
2023-04-16T03:56:17.043Z,91.11
2023-04-16T03:58:46.614Z,90.82
2023-04-16T04:01:18.449Z,91.25
2023-04-16T04:03:47.481Z,90.62
2023-04-16T04:06:18.970Z,91.04
2023-04-16T04:08:48.041Z,91.42
2023-04-16T04:11:14.663Z,91.17
2023-04-16T04:13:41.265Z,91.40
2023-04-16T04:16:11.244Z,91.22
2023-04-16T04:18:37.832Z,91.59
2023-04-16T04:21:08.573Z,91.29
2023-04-16T04:23:38.260Z,91.72
2023-04-16T04:26:05.830Z,90.95
2023-04-16T04:28:35.550Z,90.65
2023-04-16T04:31:02.348Z,90.45
2023-04-16T04:33:28.981Z,89.80
2023-04-16T04:35:55.824Z,89.47
2023-04-16T04:38:25.286Z,89.59
2023-04-16T04:40:53.012Z,89.84
2023-04-16T04:43:25.088Z,89.20
2023-04-16T04:45:51.705Z,88.77
2023-04-16T04:48:18.352Z,89.72
2023-04-16T04:50:45.602Z,88.32
2023-04-16T04:53:12.717Z,87.50
2023-04-16T04:55:40.000Z,87.29
2023-04-16T04:58:07.325Z,86.91
2023-04-16T05:00:37.657Z,86.70
2023-04-16T05:03:11.283Z,86.91
2023-04-16T05:05:41.935Z,87.33
2023-04-16T05:08:08.558Z,87.30
2023-04-16T05:10:35.172Z,86.88
2023-04-16T05:13:06.284Z,86.79
2023-04-16T05:15:32.834Z,86.33
2023-04-16T05:18:02.469Z,86.25
2023-04-16T05:20:29.070Z,87.02
2023-04-16T05:22:57.865Z,87.16
2023-04-16T05:25:26.790Z,86.37
2023-04-16T05:27:53.357Z,87.05
2023-04-16T05:30:20.621Z,86.19
2023-04-16T05:32:50.378Z,86.54
2023-04-16T05:35:21.936Z,85.73
2023-04-16T05:37:48.536Z,85.48
2023-04-16T05:40:19.848Z,85.48
2023-04-16T05:42:46.451Z,84.88
2023-04-16T05:45:13.122Z,85.81
2023-04-16T05:47:39.807Z,85.78
2023-04-16T05:50:06.978Z,85.40
2023-04-16T05:52:33.582Z,85.07
2023-04-16T05:55:03.558Z,84.51
2023-04-16T05:57:30.423Z,84.32
2023-04-16T05:59:57.034Z,84.59
2023-04-16T06:02:23.716Z,85.04
2023-04-16T06:04:50.446Z,84.95
2023-04-16T06:07:16.997Z,85.04
2023-04-16T06:09:45.849Z,84.58
2023-04-16T06:12:12.622Z,84.61
2023-04-16T06:14:39.224Z,84.61
2023-04-16T06:17:05.859Z,86.23
2023-04-16T06:19:32.433Z,86.89
2023-04-16T06:22:01.459Z,85.71
2023-04-16T06:24:30.560Z,85.81
2023-04-16T06:30:44.625Z,87.03
2023-04-16T06:33:13.603Z,86.81
2023-04-16T06:35:42.542Z,86.56
2023-04-16T06:38:09.089Z,86.40
2023-04-16T06:40:37.573Z,88.11
2023-04-16T06:43:11.459Z,87.51
2023-04-16T06:45:38.103Z,86.18
2023-04-16T06:48:05.469Z,86.45
2023-04-16T06:50:32.161Z,85.62
2023-04-16T06:52:58.736Z,86.07
2023-04-16T06:55:27.746Z,86.67
2023-04-16T06:57:56.484Z,86.27
2023-04-16T07:00:25.104Z,85.67
2023-04-16T07:02:51.787Z,84.03
2023-04-16T07:05:23.970Z,83.93
2023-04-16T07:07:52.774Z,84.66
2023-04-16T07:10:22.142Z,83.79
2023-04-16T07:12:48.756Z,84.18
2023-04-16T07:15:15.351Z,84.58
2023-04-16T07:17:41.942Z,83.66
2023-04-16T07:20:09.144Z,83.69
2023-04-16T07:22:35.936Z,82.28
2023-04-16T07:25:05.014Z,82.72
2023-04-16T07:27:31.578Z,82.89
2023-04-16T07:30:00.405Z,81.40
2023-04-16T07:32:27.047Z,80.53
2023-04-16T07:34:53.654Z,80.08
2023-04-16T07:37:23.198Z,80.94
2023-04-16T07:39:49.786Z,79.77
2023-04-16T07:42:16.355Z,78.46
2023-04-16T07:44:45.063Z,77.14
2023-04-16T07:47:13.692Z,77.71
2023-04-16T07:49:40.282Z,76.97
2023-04-16T07:52:09.047Z,76.34
2023-04-16T07:54:40.597Z,76.97
2023-04-16T07:57:07.186Z,76.49
2023-04-16T07:59:33.746Z,76.48
2023-04-16T08:02:02.512Z,76.63
2023-04-16T08:04:29.399Z,75.59
2023-04-16T08:07:00.847Z,75.90
2023-04-16T08:09:30.238Z,76.35
2023-04-16T08:11:56.938Z,76.87
2023-04-16T08:14:25.741Z,77.87
2023-04-16T08:19:45.730Z,76.00
2023-04-16T08:22:17.600Z,74.28
2023-04-16T08:24:48.998Z,74.73
2023-04-16T08:27:19.581Z,74.65
2023-04-16T08:29:47.660Z,74.80
2023-04-16T08:32:14.270Z,73.93
2023-04-16T08:34:42.034Z,73.12
2023-04-16T08:37:08.798Z,72.00
2023-04-16T08:39:37.763Z,71.47
2023-04-16T08:42:06.403Z,71.40
2023-04-16T08:44:39.100Z,71.04
2023-04-16T08:47:07.716Z,71.13
2023-04-16T08:53:26.324Z,72.63
2023-04-16T08:55:58.111Z,71.55
2023-04-16T08:58:35.669Z,71.47
2023-04-16T09:01:06.203Z,70.84
2023-04-16T09:03:36.434Z,69.71
2023-04-16T09:06:09.848Z,69.76
2023-04-16T09:08:38.176Z,69.49
2023-04-16T09:11:05.448Z,69.23
2023-04-16T09:13:32.419Z,68.68
2023-04-16T09:16:04.081Z,69.46
2023-04-16T09:18:31.288Z,69.52
2023-04-16T09:20:57.927Z,67.80
2023-04-16T09:23:26.965Z,68.33
2023-04-16T09:25:56.580Z,69.43
2023-04-16T09:28:42.820Z,68.75
2023-04-16T09:31:19.532Z,68.71
2023-04-16T09:34:01.462Z,67.79
2023-04-16T09:36:28.214Z,66.28
2023-04-16T09:38:57.618Z,68.28
2023-04-16T09:41:29.032Z,67.19
2023-04-16T09:43:57.640Z,68.23
2023-04-16T09:46:29.600Z,70.48
2023-04-16T09:48:58.682Z,68.05
2023-04-16T09:51:27.080Z,68.42
2023-04-16T09:53:56.707Z,68.60
2023-04-16T09:56:31.121Z,68.13
2023-04-16T09:59:02.383Z,68.78
2023-04-16T10:01:30.937Z,69.10
2023-04-16T10:03:59.766Z,71.51
2023-04-16T10:06:34.002Z,71.69
2023-04-16T10:09:00.646Z,64.78
2023-04-16T10:11:29.760Z,64.91
2023-04-16T10:13:58.817Z,66.21
2023-04-16T10:16:28.982Z,67.22
2023-04-16T10:18:56.711Z,66.09
2023-04-16T10:21:23.992Z,67.25
2023-04-16T10:23:52.101Z,66.95
2023-04-16T10:26:18.704Z,66.82
2023-04-16T10:28:45.605Z,65.68
2023-04-16T10:31:12.791Z,65.57
2023-04-16T10:33:44.260Z,64.78
2023-04-16T10:36:13.346Z,65.10
2023-04-16T10:38:42.178Z,66.27
2023-04-16T10:41:09.570Z,65.33
2023-04-16T10:43:47.305Z,63.10
2023-04-16T10:46:32.731Z,64.67
2023-04-16T10:49:16.288Z,62.81
2023-04-16T10:51:42.884Z,62.33
2023-04-16T10:54:12.617Z,61.95
2023-04-16T10:56:39.158Z,61.52
2023-04-16T10:59:07.783Z,61.32
2023-04-16T11:01:36.148Z,60.91
2023-04-16T11:04:23.966Z,61.04
2023-04-16T11:07:07.907Z,59.31
2023-04-16T11:09:59.760Z,59.03
2023-04-16T11:12:29.765Z,58.56
2023-04-16T11:15:08.341Z,59.03
2023-04-16T11:17:43.597Z,58.08
2023-04-16T11:20:20.063Z,58.33
2023-04-16T11:22:57.554Z,57.75
2023-04-16T11:25:31.607Z,56.57
2023-04-16T11:28:01.408Z,57.86
2023-04-16T11:30:30.417Z,55.74
2023-04-16T11:33:02.059Z,56.46
2023-04-16T11:35:28.760Z,57.12
2023-04-16T11:38:01.572Z,57.73
2023-04-16T11:40:31.756Z,55.46
2023-04-16T11:43:03.154Z,55.39
2023-04-16T11:45:31.879Z,58.82
2023-04-16T11:48:00.618Z,57.48
2023-04-16T11:50:28.730Z,60.28
2023-04-16T11:52:58.076Z,57.63
2023-04-16T11:55:24.831Z,58.71
2023-04-16T11:57:52.155Z,58.63
2023-04-16T12:00:23.668Z,58.63
2023-04-16T12:02:56.151Z,57.15
2023-04-16T12:05:30.849Z,57.53
2023-04-16T12:08:01.337Z,56.89
2023-04-16T12:10:28.705Z,55.65
2023-04-16T12:13:09.577Z,54.44
2023-04-16T12:15:49.280Z,55.29
2023-04-16T12:18:26.838Z,55.68
2023-04-16T12:20:56.140Z,56.72
2023-04-16T12:23:33.038Z,56.97
2023-04-16T12:26:10.425Z,56.02
2023-04-16T12:28:42.134Z,54.76
2023-04-16T12:31:11.208Z,51.65
2023-04-16T12:33:40.040Z,52.92
2023-04-16T12:36:24.693Z,53.51
2023-04-16T12:38:51.294Z,51.72
2023-04-16T12:41:17.904Z,53.08
2023-04-16T12:43:44.486Z,51.11
2023-04-16T12:46:11.117Z,51.99
2023-04-16T12:48:37.952Z,52.08
2023-04-16T12:51:07.619Z,52.07
2023-04-16T12:53:35.148Z,50.48
2023-04-16T12:56:04.513Z,51.00
2023-04-16T12:58:31.086Z,51.27
2023-04-16T13:01:00.352Z,51.22
2023-04-16T13:03:28.801Z,51.18
2023-04-16T13:05:57.025Z,49.68
2023-04-16T13:08:23.694Z,49.97
2023-04-16T13:10:50.321Z,50.12
2023-04-16T13:13:19.937Z,50.12
2023-04-16T13:15:48.864Z,49.19
2023-04-16T13:18:15.529Z,48.03
2023-04-16T13:20:44.545Z,49.50
2023-04-16T13:23:16.625Z,49.65
2023-04-16T13:25:43.223Z,48.74
2023-04-16T13:28:09.965Z,49.80
2023-04-16T13:30:36.873Z,49.08
2023-04-16T13:33:06.092Z,49.85
2023-04-16T13:35:35.476Z,50.59
2023-04-16T13:38:07.373Z,49.65
2023-04-16T13:40:36.299Z,50.60
2023-04-16T13:43:02.818Z,50.85
2023-04-16T13:45:29.444Z,50.35
2023-04-16T13:47:56.504Z,48.93
2023-04-16T13:50:23.585Z,50.13
2023-04-16T13:52:50.298Z,50.74
2023-04-16T13:55:19.514Z,49.81
2023-04-16T13:57:47.836Z,49.62
2023-04-16T14:00:17.317Z,50.01
2023-04-16T14:02:46.420Z,50.02
2023-04-16T14:05:16.137Z,51.61
2023-04-16T14:07:45.625Z,51.32
2023-04-16T14:10:14.586Z,50.89
2023-04-16T14:12:43.791Z,50.82
2023-04-16T14:15:14.786Z,51.42
2023-04-16T14:17:46.112Z,51.29
2023-04-16T14:20:14.205Z,51.19
2023-04-16T14:22:43.949Z,51.82
2023-04-16T14:25:10.613Z,49.90
2023-04-16T14:27:37.314Z,50.66
2023-04-16T14:30:09.732Z,50.36
2023-04-16T14:32:38.556Z,48.94
2023-04-16T14:35:08.370Z,48.58
2023-04-16T14:37:36.307Z,48.56
2023-04-16T14:40:08.994Z,48.29
2023-04-16T14:42:40.486Z,48.75
2023-04-16T14:45:08.214Z,48.51
2023-04-16T14:47:45.810Z,47.81
2023-04-16T14:50:15.656Z,48.15
2023-04-16T14:52:44.920Z,48.51
2023-04-16T14:55:11.579Z,48.49
2023-04-16T14:57:39.135Z,48.54
2023-04-16T15:00:12.028Z,48.58
2023-04-16T15:02:41.146Z,48.45
2023-04-16T15:05:10.591Z,48.25
2023-04-16T15:07:42.156Z,47.52
2023-04-16T15:10:09.542Z,48.38
2023-04-16T15:12:36.347Z,47.85
2023-04-16T15:15:03.150Z,48.23
2023-04-16T15:17:34.824Z,48.63
2023-04-16T15:20:01.691Z,47.65
2023-04-16T15:22:30.684Z,47.46
2023-04-16T15:24:59.694Z,46.55
2023-04-16T15:27:26.593Z,46.63
2023-04-16T15:29:55.754Z,45.77
2023-04-16T15:32:22.804Z,45.07
2023-04-16T15:34:51.728Z,44.60
2023-04-16T15:37:18.222Z,46.00
2023-04-16T15:39:44.840Z,44.21
2023-04-16T15:42:11.896Z,44.94
2023-04-16T15:44:41.206Z,44.53
2023-04-16T15:47:08.783Z,43.39
2023-04-16T15:49:36.119Z,44.91
2023-04-16T15:52:02.874Z,44.50
2023-04-16T15:54:30.854Z,43.98
2023-04-16T15:57:00.029Z,43.71
2023-04-16T15:59:27.017Z,44.57
2023-04-16T16:01:56.558Z,44.52
2023-04-16T16:04:26.759Z,43.95
2023-04-16T16:06:56.673Z,44.13
2023-04-16T16:09:26.494Z,44.21
2023-04-16T16:11:57.890Z,43.06
2023-04-16T16:14:26.903Z,44.18
2023-04-16T16:16:53.534Z,44.64
2023-04-16T16:19:20.468Z,44.87
2023-04-16T16:21:49.464Z,43.56
2023-04-16T16:24:15.966Z,44.40
2023-04-16T16:26:45.114Z,44.82
2023-04-16T16:29:14.210Z,44.29
2023-04-16T16:31:40.852Z,45.18
2023-04-16T16:34:07.750Z,44.94
2023-04-16T16:36:36.903Z,45.28
2023-04-16T16:39:04.316Z,46.26
2023-04-16T16:41:31.158Z,46.73
2023-04-16T16:44:00.343Z,46.59
2023-04-16T16:46:31.664Z,47.08
2023-04-16T16:49:00.593Z,47.58
2023-04-16T16:51:27.755Z,47.66
2023-04-16T16:53:56.934Z,48.09
2023-04-16T16:56:23.498Z,49.58
2023-04-16T16:58:50.131Z,49.30
2023-04-16T17:01:17.677Z,51.59
2023-04-16T17:03:44.490Z,50.74
2023-04-16T17:06:11.915Z,51.27
2023-04-16T17:08:38.695Z,51.04
2023-04-16T17:11:07.975Z,51.75
2023-04-16T17:13:36.748Z,51.68
2023-04-16T17:16:03.350Z,53.00
2023-04-16T17:18:32.530Z,51.89
2023-04-16T17:21:03.907Z,52.78
2023-04-16T17:23:32.961Z,52.69
2023-04-16T17:26:00.005Z,52.79
2023-04-16T17:28:27.130Z,52.85
2023-04-16T17:30:56.999Z,52.87
2023-04-16T17:33:23.656Z,52.85
2023-04-16T17:35:50.500Z,52.27
2023-04-16T17:38:17.059Z,53.41
2023-04-16T17:40:43.710Z,53.22
2023-04-16T17:43:10.358Z,52.68
2023-04-16T17:45:36.929Z,53.08
2023-04-16T17:48:06.408Z,53.67
2023-04-16T17:50:33.533Z,54.18
2023-04-16T17:53:03.711Z,54.73
2023-04-16T17:55:34.133Z,54.95
2023-04-16T17:58:02.688Z,55.55
2023-04-16T18:00:33.813Z,55.68
2023-04-16T18:03:02.895Z,56.72
2023-04-16T18:05:30.536Z,56.88
2023-04-16T18:07:58.047Z,57.98
2023-04-16T18:10:24.687Z,58.89
2023-04-16T18:12:53.629Z,58.97
2023-04-16T18:15:20.200Z,59.31
2023-04-16T18:17:50.355Z,60.25
2023-04-16T18:20:19.455Z,60.17
2023-04-16T18:22:48.328Z,60.93
2023-04-16T18:25:16.130Z,60.73
2023-04-16T18:27:42.882Z,61.12
2023-04-16T18:30:18.912Z,61.12
2023-04-16T18:33:16.687Z,61.96
2023-04-16T18:35:36.589Z,62.72
2023-04-16T18:38:05.697Z,61.93
2023-04-16T18:40:40.725Z,62.60
2023-04-16T18:43:09.497Z,62.93
2023-04-16T18:45:36.342Z,62.58
2023-04-16T18:48:05.396Z,62.14
2023-04-16T18:50:36.848Z,62.82
2023-04-16T18:53:06.127Z,62.72
2023-04-16T18:55:32.799Z,62.11
2023-04-16T18:57:59.369Z,61.63
2023-04-16T19:00:28.454Z,61.81
2023-04-16T19:02:55.401Z,61.45
2023-04-16T19:05:24.306Z,61.02
2023-04-16T19:07:53.415Z,60.50
2023-04-16T19:10:20.195Z,60.67
2023-04-16T19:12:47.639Z,61.00
2023-04-16T19:15:16.832Z,60.14
2023-04-16T19:17:46.785Z,59.80
2023-04-16T19:20:13.890Z,59.68
2023-04-16T19:22:45.094Z,59.11
2023-04-16T19:25:11.737Z,59.63
2023-04-16T19:27:38.751Z,59.50
2023-04-16T19:30:07.470Z,58.55
2023-04-16T19:32:39.098Z,59.84
2023-04-16T19:35:08.738Z,60.10
2023-04-16T19:37:35.440Z,60.92
2023-04-16T19:40:02.122Z,60.39
2023-04-16T19:42:31.531Z,60.17
2023-04-16T19:45:01.026Z,60.88
2023-04-16T19:47:30.136Z,60.45
2023-04-16T19:49:56.749Z,61.17
2023-04-16T19:52:23.372Z,60.97
2023-04-16T19:54:52.311Z,60.02
2023-04-16T19:57:23.771Z,59.90
2023-04-16T19:59:50.611Z,59.75
2023-04-16T20:02:22.222Z,59.23
2023-04-16T20:04:48.966Z,58.39
2023-04-16T20:07:20.090Z,58.40
2023-04-16T20:09:46.670Z,57.76
2023-04-16T20:12:15.622Z,58.23
2023-04-16T20:14:43.919Z,58.07
2023-04-16T20:17:11.030Z,57.18
2023-04-16T20:19:40.046Z,57.23
2023-04-16T20:22:09.597Z,56.83
2023-04-16T20:24:41.633Z,56.13
2023-04-16T20:27:08.251Z,55.46
2023-04-16T20:29:39.436Z,56.33
2023-04-16T20:32:10.985Z,55.81
2023-04-16T20:34:38.567Z,55.64
2023-04-16T20:37:07.656Z,55.28
2023-04-16T20:39:36.770Z,55.32
2023-04-16T20:42:10.309Z,55.03
2023-04-16T20:44:40.746Z,55.78
2023-04-16T20:47:15.362Z,55.40
2023-04-16T20:49:46.624Z,55.36
2023-04-16T20:52:16.611Z,56.65
2023-04-16T20:54:45.723Z,56.16
2023-04-16T20:57:14.405Z,55.79
2023-04-16T20:59:41.051Z,55.43
2023-04-16T21:02:08.025Z,54.95
2023-04-16T21:04:35.104Z,54.55
2023-04-16T21:07:04.445Z,55.22
2023-04-16T21:09:31.646Z,55.11
2023-04-16T21:11:58.361Z,55.21
2023-04-16T21:14:24.986Z,55.29
2023-04-16T21:16:51.576Z,55.90
2023-04-16T21:19:22.738Z,55.40
2023-04-16T21:21:49.394Z,55.79
2023-04-16T21:24:20.537Z,56.35
2023-04-16T21:26:52.418Z,55.37
2023-04-16T21:29:19.045Z,54.49
2023-04-16T21:31:46.004Z,53.92
2023-04-16T21:34:15.178Z,54.22
2023-04-16T21:36:44.886Z,53.68
2023-04-16T21:39:16.034Z,53.97
2023-04-16T21:41:49.618Z,52.18
2023-04-16T21:44:21.186Z,52.31
2023-04-16T21:46:47.800Z,52.11
2023-04-16T21:49:14.384Z,53.85
2023-04-16T21:51:46.095Z,53.81
2023-04-16T21:54:12.930Z,54.50
2023-04-16T21:56:44.308Z,54.72
2023-04-16T21:59:13.471Z,55.68
2023-04-16T22:01:42.802Z,55.98
2023-04-16T22:04:10.209Z,54.48
2023-04-16T22:06:36.927Z,54.19
2023-04-16T22:09:09.500Z,53.91
2023-04-16T22:11:36.666Z,53.31
2023-04-16T22:14:08.269Z,54.10
2023-04-16T22:16:37.030Z,53.59
2023-04-16T22:19:03.666Z,53.28
2023-04-16T22:21:31.426Z,53.04
2023-04-16T22:24:00.341Z,52.51
2023-04-16T22:26:29.449Z,52.41
2023-04-16T22:28:56.511Z,52.39
2023-04-16T22:31:28.402Z,52.63
2023-04-16T22:33:55.031Z,54.10
2023-04-16T22:36:24.132Z,53.37
2023-04-16T22:38:50.704Z,53.75
2023-04-16T22:41:23.157Z,53.74
2023-04-16T22:43:52.292Z,53.88
2023-04-16T22:46:22.506Z,54.27
2023-04-16T22:48:49.126Z,54.22
2023-04-16T22:51:18.409Z,54.19
2023-04-16T22:53:47.823Z,54.25
2023-04-16T22:56:16.766Z,54.48
2023-04-16T22:58:45.671Z,54.76
2023-04-16T23:01:16.122Z,53.93
2023-04-16T23:03:45.141Z,54.18
2023-04-16T23:06:11.829Z,55.25
2023-04-16T23:08:38.555Z,54.69
2023-04-16T23:11:07.448Z,54.76
2023-04-16T23:13:36.563Z,54.40
2023-04-16T23:16:05.715Z,54.25
2023-04-16T23:18:32.387Z,53.92
2023-04-16T23:20:58.949Z,54.62
2023-04-16T23:23:28.382Z,54.90
2023-04-16T23:25:57.159Z,54.72
2023-04-16T23:28:23.721Z,54.60
2023-04-16T23:30:55.760Z,54.11
2023-04-16T23:33:24.695Z,55.52
2023-04-16T23:35:51.262Z,54.58
2023-04-16T23:38:22.636Z,54.95
2023-04-16T23:40:49.232Z,55.05
2023-04-16T23:43:18.071Z,53.71
2023-04-16T23:45:47.159Z,53.60
2023-04-16T23:48:13.820Z,54.08
2023-04-16T23:50:43.318Z,54.76
2023-04-16T23:53:12.230Z,54.64
2023-04-16T23:55:38.753Z,54.94
2023-04-16T23:58:08.557Z,54.46
